sensor_id;sensor_type;location;lat;lon;timestamp;P1;durP1;ratioP1;P2;durP2;ratioP2
47519;SDS011;33252;48.122;11.538;2023-02-17T00:00:31;9.55;;;4.07;;
47519;SDS011;33252;48.122;11.538;2023-02-17T00:02:57;8.00;;;3.50;;
47519;SDS011;33252;48.122;11.538;2023-02-17T00:05:24;7.00;;;3.78;;
47519;SDS011;33252;48.122;11.538;2023-02-17T00:07:50;8.73;;;4.45;;
47519;SDS011;33252;48.122;11.538;2023-02-17T00:10:16;7.20;;;4.45;;
47519;SDS011;33252;48.122;11.538;2023-02-17T00:12:42;9.20;;;3.92;;
47519;SDS011;33252;48.122;11.538;2023-02-17T00:15:08;8.95;;;4.93;;
47519;SDS011;33252;48.122;11.538;2023-02-17T00:17:34;6.13;;;3.33;;
47519;SDS011;33252;48.122;11.538;2023-02-17T00:19:59;9.30;;;5.10;;
47519;SDS011;33252;48.122;11.538;2023-02-17T00:22:25;5.82;;;4.00;;
47519;SDS011;33252;48.122;11.538;2023-02-17T00:24:51;9.50;;;4.30;;
47519;SDS011;33252;48.122;11.538;2023-02-17T00:27:17;6.50;;;3.53;;
47519;SDS011;33252;48.122;11.538;2023-02-17T00:29:43;6.72;;;4.05;;
47519;SDS011;33252;48.122;11.538;2023-02-17T00:32:09;5.65;;;3.80;;
47519;SDS011;33252;48.122;11.538;2023-02-17T00:34:35;5.78;;;3.35;;
47519;SDS011;33252;48.122;11.538;2023-02-17T00:37:01;9.63;;;3.67;;
47519;SDS011;33252;48.122;11.538;2023-02-17T00:39:27;7.22;;;3.80;;
47519;SDS011;33252;48.122;11.538;2023-02-17T00:41:53;6.68;;;3.63;;
47519;SDS011;33252;48.122;11.538;2023-02-17T00:44:19;8.00;;;3.97;;
47519;SDS011;33252;48.122;11.538;2023-02-17T00:46:47;7.07;;;4.28;;
47519;SDS011;33252;48.122;11.538;2023-02-17T00:49:18;7.78;;;4.75;;
47519;SDS011;33252;48.122;11.538;2023-02-17T00:51:45;6.57;;;3.97;;
47519;SDS011;33252;48.122;11.538;2023-02-17T00:54:11;8.30;;;4.63;;
47519;SDS011;33252;48.122;11.538;2023-02-17T00:56:38;7.45;;;4.38;;
47519;SDS011;33252;48.122;11.538;2023-02-17T00:59:04;8.18;;;4.97;;
47519;SDS011;33252;48.122;11.538;2023-02-17T01:01:30;10.27;;;5.47;;
47519;SDS011;33252;48.122;11.538;2023-02-17T01:03:56;7.40;;;4.15;;
47519;SDS011;33252;48.122;11.538;2023-02-17T01:06:25;8.25;;;3.75;;
47519;SDS011;33252;48.122;11.538;2023-02-17T01:08:53;6.55;;;3.47;;
47519;SDS011;33252;48.122;11.538;2023-02-17T01:11:21;10.85;;;5.57;;
47519;SDS011;33252;48.122;11.538;2023-02-17T01:13:48;10.90;;;3.75;;
47519;SDS011;33252;48.122;11.538;2023-02-17T01:16:19;11.75;;;4.50;;
47519;SDS011;33252;48.122;11.538;2023-02-17T01:18:47;9.18;;;4.28;;
47519;SDS011;33252;48.122;11.538;2023-02-17T01:21:20;7.03;;;4.72;;
47519;SDS011;33252;48.122;11.538;2023-02-17T01:23:50;8.20;;;4.75;;
47519;SDS011;33252;48.122;11.538;2023-02-17T01:26:19;7.65;;;4.30;;
47519;SDS011;33252;48.122;11.538;2023-02-17T01:28:46;9.85;;;4.05;;
47519;SDS011;33252;48.122;11.538;2023-02-17T01:31:13;9.13;;;4.55;;
47519;SDS011;33252;48.122;11.538;2023-02-17T01:33:39;6.80;;;4.13;;
47519;SDS011;33252;48.122;11.538;2023-02-17T01:36:06;7.10;;;4.20;;
47519;SDS011;33252;48.122;11.538;2023-02-17T01:38:37;6.57;;;4.22;;
47519;SDS011;33252;48.122;11.538;2023-02-17T01:41:03;9.55;;;4.85;;
47519;SDS011;33252;48.122;11.538;2023-02-17T01:43:29;7.38;;;4.07;;
47519;SDS011;33252;48.122;11.538;2023-02-17T01:45:56;9.63;;;4.40;;
47519;SDS011;33252;48.122;11.538;2023-02-17T01:48:30;8.75;;;4.45;;
47519;SDS011;33252;48.122;11.538;2023-02-17T01:54:01;9.07;;;3.72;;
47519;SDS011;33252;48.122;11.538;2023-02-17T01:56:37;9.65;;;4.43;;
47519;SDS011;33252;48.122;11.538;2023-02-17T01:59:16;11.38;;;4.78;;
47519;SDS011;33252;48.122;11.538;2023-02-17T02:01:46;6.93;;;4.28;;
47519;SDS011;33252;48.122;11.538;2023-02-17T02:04:14;7.60;;;4.45;;
47519;SDS011;33252;48.122;11.538;2023-02-17T02:06:44;6.38;;;3.22;;
47519;SDS011;33252;48.122;11.538;2023-02-17T02:09:30;7.85;;;4.03;;
47519;SDS011;33252;48.122;11.538;2023-02-17T02:11:56;9.18;;;4.45;;
47519;SDS011;33252;48.122;11.538;2023-02-17T02:14:23;8.98;;;4.03;;
47519;SDS011;33252;48.122;11.538;2023-02-17T02:19:41;9.75;;;4.20;;
47519;SDS011;33252;48.122;11.538;2023-02-17T02:28:26;7.55;;;4.00;;
47519;SDS011;33252;48.122;11.538;2023-02-17T02:31:33;6.63;;;3.55;;
47519;SDS011;33252;48.122;11.538;2023-02-17T02:37:19;8.82;;;4.53;;
47519;SDS011;33252;48.122;11.538;2023-02-17T02:39:51;7.40;;;3.85;;
47519;SDS011;33252;48.122;11.538;2023-02-17T02:42:19;8.25;;;3.97;;
47519;SDS011;33252;48.122;11.538;2023-02-17T02:44:47;5.88;;;3.53;;
47519;SDS011;33252;48.122;11.538;2023-02-17T02:50:04;7.93;;;3.90;;
47519;SDS011;33252;48.122;11.538;2023-02-17T02:55:55;10.95;;;4.38;;
47519;SDS011;33252;48.122;11.538;2023-02-17T03:04:23;8.45;;;3.83;;
47519;SDS011;33252;48.122;11.538;2023-02-17T03:07:20;8.45;;;4.25;;
47519;SDS011;33252;48.122;11.538;2023-02-17T03:09:51;5.47;;;3.28;;
47519;SDS011;33252;48.122;11.538;2023-02-17T03:12:19;5.53;;;3.65;;
47519;SDS011;33252;48.122;11.538;2023-02-17T03:14:50;6.32;;;3.47;;
47519;SDS011;33252;48.122;11.538;2023-02-17T03:19:45;7.25;;;3.70;;
47519;SDS011;33252;48.122;11.538;2023-02-17T03:22:22;5.63;;;3.58;;
47519;SDS011;33252;48.122;11.538;2023-02-17T03:24:51;7.65;;;3.72;;
47519;SDS011;33252;48.122;11.538;2023-02-17T03:27:17;7.90;;;3.47;;
47519;SDS011;33252;48.122;11.538;2023-02-17T03:29:43;7.82;;;3.67;;
47519;SDS011;33252;48.122;11.538;2023-02-17T03:32:08;6.78;;;3.42;;
47519;SDS011;33252;48.122;11.538;2023-02-17T03:34:34;6.38;;;3.70;;
47519;SDS011;33252;48.122;11.538;2023-02-17T03:37:00;8.40;;;3.50;;
47519;SDS011;33252;48.122;11.538;2023-02-17T03:39:26;7.72;;;3.15;;
47519;SDS011;33252;48.122;11.538;2023-02-17T03:41:52;4.55;;;2.47;;
47519;SDS011;33252;48.122;11.538;2023-02-17T03:44:17;7.05;;;3.20;;
47519;SDS011;33252;48.122;11.538;2023-02-17T03:46:44;7.45;;;3.17;;
47519;SDS011;33252;48.122;11.538;2023-02-17T03:49:10;7.63;;;3.88;;
47519;SDS011;33252;48.122;11.538;2023-02-17T03:51:36;6.63;;;3.20;;
47519;SDS011;33252;48.122;11.538;2023-02-17T03:54:02;5.47;;;3.05;;
47519;SDS011;33252;48.122;11.538;2023-02-17T03:56:28;5.30;;;3.35;;
47519;SDS011;33252;48.122;11.538;2023-02-17T03:58:54;3.75;;;2.75;;
47519;SDS011;33252;48.122;11.538;2023-02-17T04:01:20;5.85;;;2.63;;
47519;SDS011;33252;48.122;11.538;2023-02-17T04:03:45;6.32;;;2.90;;
47519;SDS011;33252;48.122;11.538;2023-02-17T04:06:11;8.02;;;2.90;;
47519;SDS011;33252;48.122;11.538;2023-02-17T04:08:37;7.43;;;2.80;;
47519;SDS011;33252;48.122;11.538;2023-02-17T04:11:04;4.38;;;2.42;;
47519;SDS011;33252;48.122;11.538;2023-02-17T04:13:30;4.60;;;2.70;;
47519;SDS011;33252;48.122;11.538;2023-02-17T04:15:56;5.45;;;2.72;;
47519;SDS011;33252;48.122;11.538;2023-02-17T04:18:22;3.08;;;2.25;;
47519;SDS011;33252;48.122;11.538;2023-02-17T04:20:48;3.67;;;2.50;;
47519;SDS011;33252;48.122;11.538;2023-02-17T04:23:15;8.25;;;2.95;;
47519;SDS011;33252;48.122;11.538;2023-02-17T04:25:42;4.93;;;2.75;;
47519;SDS011;33252;48.122;11.538;2023-02-17T04:28:08;4.60;;;2.42;;
47519;SDS011;33252;48.122;11.538;2023-02-17T04:30:34;4.82;;;2.67;;
47519;SDS011;33252;48.122;11.538;2023-02-17T04:33:00;5.72;;;2.40;;
47519;SDS011;33252;48.122;11.538;2023-02-17T04:35:26;3.97;;;2.00;;
47519;SDS011;33252;48.122;11.538;2023-02-17T04:37:52;7.45;;;3.28;;
47519;SDS011;33252;48.122;11.538;2023-02-17T04:40:18;5.72;;;2.88;;
47519;SDS011;33252;48.122;11.538;2023-02-17T04:42:44;5.82;;;2.83;;
47519;SDS011;33252;48.122;11.538;2023-02-17T04:45:10;7.70;;;3.10;;
47519;SDS011;33252;48.122;11.538;2023-02-17T04:47:36;4.63;;;2.40;;
47519;SDS011;33252;48.122;11.538;2023-02-17T04:50:02;4.68;;;2.90;;
47519;SDS011;33252;48.122;11.538;2023-02-17T04:52:29;5.53;;;2.72;;
47519;SDS011;33252;48.122;11.538;2023-02-17T04:54:55;7.45;;;2.42;;
47519;SDS011;33252;48.122;11.538;2023-02-17T04:57:20;5.93;;;2.75;;
47519;SDS011;33252;48.122;11.538;2023-02-17T04:59:46;5.10;;;2.72;;
47519;SDS011;33252;48.122;11.538;2023-02-17T05:02:11;4.82;;;2.55;;
47519;SDS011;33252;48.122;11.538;2023-02-17T05:04:37;7.07;;;3.35;;
47519;SDS011;33252;48.122;11.538;2023-02-17T05:07:03;3.83;;;2.22;;
47519;SDS011;33252;48.122;11.538;2023-02-17T05:09:28;9.75;;;3.15;;
47519;SDS011;33252;48.122;11.538;2023-02-17T05:11:54;6.47;;;2.65;;
47519;SDS011;33252;48.122;11.538;2023-02-17T05:14:20;5.32;;;2.72;;
47519;SDS011;33252;48.122;11.538;2023-02-17T05:16:45;4.47;;;2.67;;
47519;SDS011;33252;48.122;11.538;2023-02-17T05:19:11;5.25;;;2.45;;
47519;SDS011;33252;48.122;11.538;2023-02-17T05:21:36;7.05;;;2.63;;
47519;SDS011;33252;48.122;11.538;2023-02-17T05:24:02;5.82;;;2.95;;
47519;SDS011;33252;48.122;11.538;2023-02-17T05:26:28;4.32;;;2.22;;
47519;SDS011;33252;48.122;11.538;2023-02-17T05:28:54;7.28;;;2.92;;
47519;SDS011;33252;48.122;11.538;2023-02-17T05:31:19;5.65;;;2.45;;
47519;SDS011;33252;48.122;11.538;2023-02-17T05:33:45;3.33;;;2.60;;
47519;SDS011;33252;48.122;11.538;2023-02-17T05:36:11;4.57;;;2.28;;
47519;SDS011;33252;48.122;11.538;2023-02-17T05:38:37;3.33;;;2.17;;
47519;SDS011;33252;48.122;11.538;2023-02-17T05:41:03;7.75;;;2.85;;
47519;SDS011;33252;48.122;11.538;2023-02-17T05:43:29;7.20;;;2.90;;
47519;SDS011;33252;48.122;11.538;2023-02-17T05:45:55;6.18;;;2.55;;
47519;SDS011;33252;48.122;11.538;2023-02-17T05:48:25;6.05;;;2.72;;
47519;SDS011;33252;48.122;11.538;2023-02-17T05:50:53;5.85;;;3.50;;
47519;SDS011;33252;48.122;11.538;2023-02-17T05:53:19;6.32;;;2.38;;
47519;SDS011;33252;48.122;11.538;2023-02-17T05:55:45;10.15;;;2.85;;
47519;SDS011;33252;48.122;11.538;2023-02-17T05:58:10;5.45;;;2.08;;
47519;SDS011;33252;48.122;11.538;2023-02-17T06:00:36;6.93;;;2.40;;
47519;SDS011;33252;48.122;11.538;2023-02-17T06:03:02;5.22;;;2.45;;
47519;SDS011;33252;48.122;11.538;2023-02-17T06:05:28;5.20;;;2.42;;
47519;SDS011;33252;48.122;11.538;2023-02-17T06:07:53;6.38;;;2.38;;
47519;SDS011;33252;48.122;11.538;2023-02-17T06:10:19;6.03;;;2.08;;
47519;SDS011;33252;48.122;11.538;2023-02-17T06:12:45;7.30;;;2.45;;
47519;SDS011;33252;48.122;11.538;2023-02-17T06:15:10;6.50;;;2.70;;
47519;SDS011;33252;48.122;11.538;2023-02-17T06:17:36;7.00;;;2.20;;
47519;SDS011;33252;48.122;11.538;2023-02-17T06:20:02;7.03;;;2.97;;
47519;SDS011;33252;48.122;11.538;2023-02-17T06:22:29;9.90;;;2.60;;
47519;SDS011;33252;48.122;11.538;2023-02-17T06:24:54;5.28;;;2.13;;
47519;SDS011;33252;48.122;11.538;2023-02-17T06:27:20;5.75;;;3.45;;
47519;SDS011;33252;48.122;11.538;2023-02-17T06:29:45;6.55;;;1.95;;
47519;SDS011;33252;48.122;11.538;2023-02-17T06:32:11;7.30;;;2.80;;
47519;SDS011;33252;48.122;11.538;2023-02-17T06:34:37;6.65;;;2.05;;
47519;SDS011;33252;48.122;11.538;2023-02-17T06:37:03;4.80;;;2.38;;
47519;SDS011;33252;48.122;11.538;2023-02-17T06:39:28;4.93;;;2.50;;
47519;SDS011;33252;48.122;11.538;2023-02-17T06:41:54;7.57;;;3.78;;
47519;SDS011;33252;48.122;11.538;2023-02-17T06:44:20;4.05;;;2.95;;
47519;SDS011;33252;48.122;11.538;2023-02-17T06:46:45;5.13;;;2.47;;
47519;SDS011;33252;48.122;11.538;2023-02-17T06:49:12;4.05;;;2.38;;
47519;SDS011;33252;48.122;11.538;2023-02-17T06:51:38;4.30;;;2.00;;
47519;SDS011;33252;48.122;11.538;2023-02-17T06:54:04;6.82;;;3.15;;
47519;SDS011;33252;48.122;11.538;2023-02-17T06:56:30;4.65;;;2.35;;
47519;SDS011;33252;48.122;11.538;2023-02-17T06:58:56;6.60;;;1.80;;
47519;SDS011;33252;48.122;11.538;2023-02-17T07:01:22;5.32;;;1.80;;
47519;SDS011;33252;48.122;11.538;2023-02-17T07:03:51;4.82;;;2.25;;
47519;SDS011;33252;48.122;11.538;2023-02-17T07:06:18;5.78;;;2.63;;
47519;SDS011;33252;48.122;11.538;2023-02-17T07:08:44;8.85;;;2.10;;
47519;SDS011;33252;48.122;11.538;2023-02-17T07:11:10;3.42;;;1.77;;
47519;SDS011;33252;48.122;11.538;2023-02-17T07:13:37;5.95;;;1.90;;
47519;SDS011;33252;48.122;11.538;2023-02-17T07:16:05;9.25;;;2.38;;
47519;SDS011;33252;48.122;11.538;2023-02-17T07:18:31;4.32;;;1.50;;
47519;SDS011;33252;48.122;11.538;2023-02-17T07:20:56;8.13;;;3.03;;
47519;SDS011;33252;48.122;11.538;2023-02-17T07:23:22;4.80;;;1.95;;
47519;SDS011;33252;48.122;11.538;2023-02-17T07:25:48;6.07;;;2.17;;
47519;SDS011;33252;48.122;11.538;2023-02-17T07:28:13;7.35;;;2.35;;
47519;SDS011;33252;48.122;11.538;2023-02-17T07:30:39;11.93;;;2.17;;
47519;SDS011;33252;48.122;11.538;2023-02-17T07:33:07;8.00;;;2.85;;
47519;SDS011;33252;48.122;11.538;2023-02-17T07:35:33;3.90;;;1.50;;
47519;SDS011;33252;48.122;11.538;2023-02-17T07:37:59;4.70;;;2.53;;
47519;SDS011;33252;48.122;11.538;2023-02-17T07:40:26;9.77;;;2.05;;
47519;SDS011;33252;48.122;11.538;2023-02-17T07:42:52;7.57;;;2.67;;
47519;SDS011;33252;48.122;11.538;2023-02-17T07:45:18;7.85;;;3.20;;
47519;SDS011;33252;48.122;11.538;2023-02-17T07:47:44;7.25;;;2.17;;
47519;SDS011;33252;48.122;11.538;2023-02-17T07:50:10;4.60;;;2.28;;
47519;SDS011;33252;48.122;11.538;2023-02-17T07:52:35;9.25;;;2.33;;
47519;SDS011;33252;48.122;11.538;2023-02-17T07:55:01;10.57;;;2.65;;
47519;SDS011;33252;48.122;11.538;2023-02-17T07:57:27;8.98;;;2.63;;
47519;SDS011;33252;48.122;11.538;2023-02-17T07:59:53;7.00;;;1.63;;
47519;SDS011;33252;48.122;11.538;2023-02-17T08:02:19;8.50;;;2.13;;
47519;SDS011;33252;48.122;11.538;2023-02-17T08:04:45;8.70;;;2.60;;
47519;SDS011;33252;48.122;11.538;2023-02-17T08:07:10;9.98;;;2.08;;
47519;SDS011;33252;48.122;11.538;2023-02-17T08:09:36;8.75;;;1.75;;
47519;SDS011;33252;48.122;11.538;2023-02-17T08:12:20;6.22;;;2.45;;
47519;SDS011;33252;48.122;11.538;2023-02-17T08:15:05;4.75;;;1.55;;
47519;SDS011;33252;48.122;11.538;2023-02-17T08:17:33;10.43;;;3.35;;
47519;SDS011;33252;48.122;11.538;2023-02-17T08:19:59;6.18;;;2.55;;
47519;SDS011;33252;48.122;11.538;2023-02-17T08:22:24;7.82;;;2.10;;
47519;SDS011;33252;48.122;11.538;2023-02-17T08:24:50;3.45;;;1.77;;
47519;SDS011;33252;48.122;11.538;2023-02-17T08:27:16;4.43;;;2.22;;
47519;SDS011;33252;48.122;11.538;2023-02-17T08:29:43;6.18;;;2.20;;
47519;SDS011;33252;48.122;11.538;2023-02-17T08:32:09;7.43;;;2.20;;
47519;SDS011;33252;48.122;11.538;2023-02-17T08:34:36;8.02;;;2.33;;
47519;SDS011;33252;48.122;11.538;2023-02-17T08:37:02;7.75;;;2.03;;
47519;SDS011;33252;48.122;11.538;2023-02-17T08:39:29;6.60;;;3.42;;
47519;SDS011;33252;48.122;11.538;2023-02-17T08:41:56;8.45;;;1.95;;
47519;SDS011;33252;48.122;11.538;2023-02-17T08:44:21;9.32;;;2.05;;
47519;SDS011;33252;48.122;11.538;2023-02-17T08:46:48;6.38;;;1.77;;
47519;SDS011;33252;48.122;11.538;2023-02-17T08:49:15;6.38;;;2.38;;
47519;SDS011;33252;48.122;11.538;2023-02-17T08:51:43;10.77;;;2.25;;
47519;SDS011;33252;48.122;11.538;2023-02-17T08:54:09;9.65;;;2.67;;
47519;SDS011;33252;48.122;11.538;2023-02-17T08:56:35;6.05;;;2.30;;
47519;SDS011;33252;48.122;11.538;2023-02-17T08:59:03;10.25;;;1.85;;
47519;SDS011;33252;48.122;11.538;2023-02-17T09:01:29;7.68;;;2.10;;
47519;SDS011;33252;48.122;11.538;2023-02-17T09:03:56;6.43;;;2.03;;
47519;SDS011;33252;48.122;11.538;2023-02-17T09:06:34;9.43;;;2.47;;
47519;SDS011;33252;48.122;11.538;2023-02-17T09:09:09;7.78;;;2.42;;
47519;SDS011;33252;48.122;11.538;2023-02-17T09:11:37;5.15;;;2.05;;
47519;SDS011;33252;48.122;11.538;2023-02-17T09:14:03;4.53;;;2.40;;
47519;SDS011;33252;48.122;11.538;2023-02-17T09:16:30;5.15;;;2.25;;
47519;SDS011;33252;48.122;11.538;2023-02-17T09:18:56;9.15;;;2.70;;
47519;SDS011;33252;48.122;11.538;2023-02-17T09:21:21;6.20;;;2.38;;
47519;SDS011;33252;48.122;11.538;2023-02-17T09:23:47;6.50;;;2.17;;
47519;SDS011;33252;48.122;11.538;2023-02-17T09:26:14;7.65;;;2.92;;
47519;SDS011;33252;48.122;11.538;2023-02-17T09:28:41;7.05;;;2.30;;
47519;SDS011;33252;48.122;11.538;2023-02-17T09:31:11;6.45;;;2.63;;
47519;SDS011;33252;48.122;11.538;2023-02-17T09:33:41;6.60;;;2.60;;
47519;SDS011;33252;48.122;11.538;2023-02-17T09:36:08;7.07;;;3.20;;
47519;SDS011;33252;48.122;11.538;2023-02-17T09:38:37;7.25;;;2.83;;
47519;SDS011;33252;48.122;11.538;2023-02-17T09:41:15;5.32;;;3.15;;
47519;SDS011;33252;48.122;11.538;2023-02-17T09:43:46;7.25;;;2.20;;
47519;SDS011;33252;48.122;11.538;2023-02-17T09:46:29;7.88;;;2.67;;
47519;SDS011;33252;48.122;11.538;2023-02-17T09:49:05;6.28;;;2.78;;
47519;SDS011;33252;48.122;11.538;2023-02-17T09:51:42;5.78;;;2.45;;
47519;SDS011;33252;48.122;11.538;2023-02-17T09:54:33;12.88;;;2.58;;
47519;SDS011;33252;48.122;11.538;2023-02-17T09:57:05;7.45;;;1.95;;
47519;SDS011;33252;48.122;11.538;2023-02-17T09:59:44;4.07;;;1.90;;
47519;SDS011;33252;48.122;11.538;2023-02-17T10:02:23;5.78;;;2.45;;
47519;SDS011;33252;48.122;11.538;2023-02-17T10:07:51;4.85;;;2.25;;
47519;SDS011;33252;48.122;11.538;2023-02-17T10:10:27;8.00;;;2.25;;
47519;SDS011;33252;48.122;11.538;2023-02-17T10:13:16;7.65;;;1.85;;
47519;SDS011;33252;48.122;11.538;2023-02-17T10:15:45;10.20;;;3.83;;
47519;SDS011;33252;48.122;11.538;2023-02-17T10:18:16;7.55;;;2.38;;
47519;SDS011;33252;48.122;11.538;2023-02-17T10:20:46;5.47;;;2.10;;
47519;SDS011;33252;48.122;11.538;2023-02-17T10:23:20;4.57;;;2.05;;
47519;SDS011;33252;48.122;11.538;2023-02-17T10:31:46;4.45;;;2.15;;
47519;SDS011;33252;48.122;11.538;2023-02-17T10:34:12;8.90;;;2.47;;
47519;SDS011;33252;48.122;11.538;2023-02-17T10:37:01;7.93;;;3.67;;
47519;SDS011;33252;48.122;11.538;2023-02-17T10:39:48;7.53;;;1.92;;
47519;SDS011;33252;48.122;11.538;2023-02-17T10:42:27;8.48;;;1.92;;
47519;SDS011;33252;48.122;11.538;2023-02-17T10:45:18;6.05;;;2.10;;
47519;SDS011;33252;48.122;11.538;2023-02-17T10:47:42;7.35;;;2.10;;
47519;SDS011;33252;48.122;11.538;2023-02-17T10:50:18;7.07;;;2.13;;
47519;SDS011;33252;48.122;11.538;2023-02-17T10:52:46;5.72;;;1.83;;
47519;SDS011;33252;48.122;11.538;2023-02-17T10:57:59;6.13;;;2.05;;
47519;SDS011;33252;48.122;11.538;2023-02-17T11:00:33;5.68;;;1.90;;
47519;SDS011;33252;48.122;11.538;2023-02-17T11:02:59;8.55;;;2.42;;
47519;SDS011;33252;48.122;11.538;2023-02-17T11:05:28;5.05;;;1.80;;
47519;SDS011;33252;48.122;11.538;2023-02-17T11:08:06;11.18;;;2.22;;
47519;SDS011;33252;48.122;11.538;2023-02-17T11:10:47;3.00;;;1.77;;
47519;SDS011;33252;48.122;11.538;2023-02-17T11:13:41;6.60;;;2.03;;
47519;SDS011;33252;48.122;11.538;2023-02-17T11:16:19;5.28;;;1.70;;
47519;SDS011;33252;48.122;11.538;2023-02-17T11:18:53;4.03;;;1.88;;
47519;SDS011;33252;48.122;11.538;2023-02-17T11:21:20;8.13;;;2.25;;
47519;SDS011;33252;48.122;11.538;2023-02-17T11:23:59;4.93;;;1.38;;
47519;SDS011;33252;48.122;11.538;2023-02-17T11:26:28;7.00;;;1.90;;
47519;SDS011;33252;48.122;11.538;2023-02-17T11:29:09;6.25;;;1.80;;
47519;SDS011;33252;48.122;11.538;2023-02-17T11:31:40;7.75;;;2.58;;
47519;SDS011;33252;48.122;11.538;2023-02-17T11:34:10;4.60;;;1.52;;
47519;SDS011;33252;48.122;11.538;2023-02-17T11:36:38;5.82;;;2.55;;
47519;SDS011;33252;48.122;11.538;2023-02-17T11:39:17;7.28;;;1.88;;
47519;SDS011;33252;48.122;11.538;2023-02-17T11:41:44;3.78;;;1.27;;
47519;SDS011;33252;48.122;11.538;2023-02-17T11:44:23;4.40;;;2.22;;
47519;SDS011;33252;48.122;11.538;2023-02-17T11:46:58;6.38;;;1.80;;
47519;SDS011;33252;48.122;11.538;2023-02-17T11:49:42;5.68;;;1.63;;
47519;SDS011;33252;48.122;11.538;2023-02-17T12:09:29;3.13;;;1.70;;
47519;SDS011;33252;48.122;11.538;2023-02-17T12:12:08;6.65;;;1.67;;
47519;SDS011;33252;48.122;11.538;2023-02-17T12:15:07;6.68;;;1.63;;
47519;SDS011;33252;48.122;11.538;2023-02-17T12:17:58;6.05;;;2.10;;
47519;SDS011;33252;48.122;11.538;2023-02-17T12:23:14;6.97;;;1.85;;
47519;SDS011;33252;48.122;11.538;2023-02-17T12:26:37;6.43;;;1.45;;
47519;SDS011;33252;48.122;11.538;2023-02-17T12:31:40;6.88;;;2.15;;
47519;SDS011;33252;48.122;11.538;2023-02-17T12:36:56;3.60;;;1.33;;
47519;SDS011;33252;48.122;11.538;2023-02-17T12:39:24;5.15;;;1.75;;
47519;SDS011;33252;48.122;11.538;2023-02-17T12:45:13;4.65;;;1.40;;
47519;SDS011;33252;48.122;11.538;2023-02-17T12:50:29;2.97;;;1.90;;
47519;SDS011;33252;48.122;11.538;2023-02-17T12:53:10;6.05;;;1.55;;
47519;SDS011;33252;48.122;11.538;2023-02-17T12:55:46;5.00;;;1.60;;
47519;SDS011;33252;48.122;11.538;2023-02-17T12:58:19;3.10;;;1.33;;
47519;SDS011;33252;48.122;11.538;2023-02-17T13:00:49;2.90;;;1.30;;
47519;SDS011;33252;48.122;11.538;2023-02-17T13:03:22;2.78;;;1.40;;
47519;SDS011;33252;48.122;11.538;2023-02-17T13:08:57;3.17;;;1.63;;
47519;SDS011;33252;48.122;11.538;2023-02-17T13:11:27;4.15;;;1.55;;
47519;SDS011;33252;48.122;11.538;2023-02-17T13:16:43;4.07;;;1.80;;
47519;SDS011;33252;48.122;11.538;2023-02-17T13:19:09;8.00;;;2.53;;
47519;SDS011;33252;48.122;11.538;2023-02-17T13:21:47;4.72;;;1.95;;
47519;SDS011;33252;48.122;11.538;2023-02-17T13:24:37;4.00;;;1.38;;
47519;SDS011;33252;48.122;11.538;2023-02-17T13:32:32;5.40;;;1.75;;
47519;SDS011;33252;48.122;11.538;2023-02-17T13:37:46;7.32;;;1.85;;
47519;SDS011;33252;48.122;11.538;2023-02-17T13:42:50;4.70;;;2.03;;
47519;SDS011;33252;48.122;11.538;2023-02-17T13:50:41;5.00;;;1.58;;
47519;SDS011;33252;48.122;11.538;2023-02-17T13:56:08;4.32;;;1.50;;
47519;SDS011;33252;48.122;11.538;2023-02-17T13:58:51;1.70;;;1.42;;
47519;SDS011;33252;48.122;11.538;2023-02-17T14:01:18;4.57;;;2.00;;
47519;SDS011;33252;48.122;11.538;2023-02-17T14:03:51;3.63;;;1.48;;
47519;SDS011;33252;48.122;11.538;2023-02-17T14:06:32;5.63;;;1.88;;
47519;SDS011;33252;48.122;11.538;2023-02-17T14:11:58;5.53;;;1.77;;
47519;SDS011;33252;48.122;11.538;2023-02-17T14:14:30;5.40;;;1.33;;
47519;SDS011;33252;48.122;11.538;2023-02-17T14:19:39;3.10;;;1.10;;
47519;SDS011;33252;48.122;11.538;2023-02-17T14:22:20;4.15;;;1.52;;
47519;SDS011;33252;48.122;11.538;2023-02-17T14:25:12;5.45;;;1.48;;
47519;SDS011;33252;48.122;11.538;2023-02-17T14:27:49;4.07;;;1.15;;
47519;SDS011;33252;48.122;11.538;2023-02-17T14:35:33;1.92;;;0.93;;
47519;SDS011;33252;48.122;11.538;2023-02-17T14:38:07;2.65;;;1.08;;
47519;SDS011;33252;48.122;11.538;2023-02-17T14:40:40;3.00;;;1.40;;
47519;SDS011;33252;48.122;11.538;2023-02-17T14:43:06;4.50;;;1.60;;
47519;SDS011;33252;48.122;11.538;2023-02-17T14:45:32;2.78;;;1.20;;
47519;SDS011;33252;48.122;11.538;2023-02-17T14:47:57;5.97;;;2.10;;
47519;SDS011;33252;48.122;11.538;2023-02-17T14:50:23;2.92;;;1.05;;
47519;SDS011;33252;48.122;11.538;2023-02-17T14:52:49;1.92;;;0.98;;
47519;SDS011;33252;48.122;11.538;2023-02-17T14:55:43;3.72;;;1.30;;
47519;SDS011;33252;48.122;11.538;2023-02-17T14:58:07;4.60;;;1.23;;
47519;SDS011;33252;48.122;11.538;2023-02-17T15:00:40;2.20;;;1.05;;
47519;SDS011;33252;48.122;11.538;2023-02-17T15:03:05;2.67;;;1.23;;
47519;SDS011;33252;48.122;11.538;2023-02-17T15:05:32;4.07;;;1.00;;
47519;SDS011;33252;48.122;11.538;2023-02-17T15:07:59;3.33;;;1.27;;
47519;SDS011;33252;48.122;11.538;2023-02-17T15:10:26;3.35;;;1.40;;
47519;SDS011;33252;48.122;11.538;2023-02-17T15:12:53;4.05;;;0.95;;
47519;SDS011;33252;48.122;11.538;2023-02-17T15:15:19;2.58;;;1.38;;
47519;SDS011;33252;48.122;11.538;2023-02-17T15:17:45;7.00;;;1.98;;
47519;SDS011;33252;48.122;11.538;2023-02-17T15:20:12;2.53;;;1.27;;
47519;SDS011;33252;48.122;11.538;2023-02-17T15:22:38;2.58;;;0.95;;
47519;SDS011;33252;48.122;11.538;2023-02-17T15:25:16;4.05;;;1.15;;
47519;SDS011;33252;48.122;11.538;2023-02-17T15:27:43;2.08;;;0.98;;
47519;SDS011;33252;48.122;11.538;2023-02-17T15:30:11;4.00;;;2.67;;
47519;SDS011;33252;48.122;11.538;2023-02-17T15:32:37;4.57;;;1.48;;
47519;SDS011;33252;48.122;11.538;2023-02-17T15:35:37;2.60;;;1.25;;
47519;SDS011;33252;48.122;11.538;2023-02-17T15:37:56;2.45;;;1.40;;
47519;SDS011;33252;48.122;11.538;2023-02-17T15:40:23;4.05;;;1.02;;
47519;SDS011;33252;48.122;11.538;2023-02-17T15:42:54;7.57;;;1.30;;
47519;SDS011;33252;48.122;11.538;2023-02-17T15:45:21;7.05;;;1.50;;
47519;SDS011;33252;48.122;11.538;2023-02-17T15:47:49;3.15;;;1.33;;
47519;SDS011;33252;48.122;11.538;2023-02-17T15:50:19;18.80;;;3.50;;
47519;SDS011;33252;48.122;11.538;2023-02-17T15:52:47;4.40;;;1.98;;
47519;SDS011;33252;48.122;11.538;2023-02-17T15:55:13;2.00;;;1.20;;
47519;SDS011;33252;48.122;11.538;2023-02-17T15:57:43;4.07;;;1.60;;
47519;SDS011;33252;48.122;11.538;2023-02-17T16:00:31;2.20;;;1.02;;
47519;SDS011;33252;48.122;11.538;2023-02-17T16:02:56;3.75;;;0.88;;
47519;SDS011;33252;48.122;11.538;2023-02-17T16:05:23;6.65;;;1.40;;
47519;SDS011;33252;48.122;11.538;2023-02-17T16:07:50;4.20;;;2.42;;
47519;SDS011;33252;48.122;11.538;2023-02-17T16:10:18;2.42;;;1.17;;
47519;SDS011;33252;48.122;11.538;2023-02-17T16:12:45;4.75;;;1.20;;
47519;SDS011;33252;48.122;11.538;2023-02-17T16:15:13;1.83;;;0.85;;
47519;SDS011;33252;48.122;11.538;2023-02-17T16:17:39;3.55;;;1.15;;
47519;SDS011;33252;48.122;11.538;2023-02-17T16:20:10;2.53;;;0.77;;
47519;SDS011;33252;48.122;11.538;2023-02-17T16:22:37;1.13;;;0.90;;
47519;SDS011;33252;48.122;11.538;2023-02-17T16:25:03;3.08;;;1.05;;
47519;SDS011;33252;48.122;11.538;2023-02-17T16:27:30;6.88;;;1.08;;
47519;SDS011;33252;48.122;11.538;2023-02-17T16:29:56;4.30;;;1.23;;
47519;SDS011;33252;48.122;11.538;2023-02-17T16:32:22;2.15;;;1.10;;
47519;SDS011;33252;48.122;11.538;2023-02-17T16:34:48;3.05;;;1.10;;